Time,TemperatureF,DewpointF,PressureIn,WindDirection,WindDirectionDegrees,WindSpeedMPH,WindSpeedGustMPH,Humidity,HourlyPrecipIn,Conditions,Clouds,dailyrainin,SoftwareType,DateUTC
2013-06-26 00:03:00,73.0,68.6,29.58,SSE,161,0.0,1.0,86,0.00,,,0.00,Wunderground v.1.15,2013-06-26 05:03:00,
2013-06-26 00:09:00,72.8,68.7,29.58,SSE,161,2.0,2.0,87,0.00,,,0.00,Wunderground v.1.15,2013-06-26 05:09:00,
2013-06-26 00:14:00,72.8,68.7,29.58,SE,136,0.0,1.0,87,0.00,,,0.00,Wunderground v.1.15,2013-06-26 05:14:00,
2013-06-26 00:20:00,72.7,68.9,29.57,NNW,331,0.0,0.0,88,0.00,,,0.00,Wunderground v.1.15,2013-06-26 05:20:00,
2013-06-26 00:25:00,72.8,69.0,29.57,West,268,0.0,0.0,88,0.00,,,0.00,Wunderground v.1.15,2013-06-26 05:25:00,
2013-06-26 00:31:00,72.8,69.0,29.57,West,269,0.0,0.0,88,0.00,,,0.00,Wunderground v.1.15,2013-06-26 05:31:00,
2013-06-26 00:37:00,72.6,68.8,29.57,West,269,0.0,0.0,88,0.00,,,0.00,Wunderground v.1.15,2013-06-26 05:37:00,
2013-06-26 00:42:00,72.4,68.6,29.57,West,269,0.0,0.0,88,0.00,,,0.00,Wunderground v.1.15,2013-06-26 05:42:00,
2013-06-26 00:48:00,72.3,68.5,29.57,West,269,0.0,0.0,88,0.00,,,0.00,Wunderground v.1.15,2013-06-26 05:48:00,
2013-06-26 00:54:00,72.1,68.7,29.57,West,268,0.0,0.0,89,0.00,,,0.00,Wunderground v.1.15,2013-06-26 05:54:00,
2013-06-26 01:00:00,72.0,68.6,29.57,West,269,0.0,0.0,89,0.00,,,0.00,Wunderground v.1.15,2013-06-26 06:00:00,
2013-06-26 01:06:00,71.9,68.5,29.57,West,269,0.0,0.0,89,0.00,,,0.00,Wunderground v.1.15,2013-06-26 06:06:00,
2013-06-26 01:11:00,71.7,68.3,29.57,West,269,0.0,0.0,89,0.00,,,0.00,Wunderground v.1.15,2013-06-26 06:11:00,
2013-06-26 01:16:00,71.6,68.2,29.58,West,269,0.0,0.0,89,0.00,,,0.00,Wunderground v.1.15,2013-06-26 06:16:00,
2013-06-26 01:22:00,71.5,68.1,29.57,West,269,0.0,0.0,89,0.00,,,0.00,Wunderground v.1.15,2013-06-26 06:22:00,
2013-06-26 01:27:00,71.3,68.2,29.57,West,268,0.0,0.0,90,0.00,,,0.00,Wunderground v.1.15,2013-06-26 06:27:00,
2013-06-26 01:32:00,71.2,68.1,29.57,West,268,0.0,0.0,90,0.00,,,0.00,Wunderground v.1.15,2013-06-26 06:32:00,
2013-06-26 01:38:00,71.1,68.0,29.56,West,269,0.0,0.0,90,0.00,,,0.00,Wunderground v.1.15,2013-06-26 06:38:00,
2013-06-26 01:43:00,70.9,67.8,29.56,West,268,0.0,0.0,90,0.00,,,0.00,Wunderground v.1.15,2013-06-26 06:43:00,
2013-06-26 01:49:00,70.9,67.8,29.56,West,269,0.0,0.0,90,0.00,,,0.00,Wunderground v.1.15,2013-06-26 06:49:00,
2013-06-26 01:55:00,70.9,67.8,29.56,West,268,0.0,0.0,90,0.00,,,0.00,Wunderground v.1.15,2013-06-26 06:55:00,
2013-06-26 02:00:00,71.0,68.2,29.56,West,269,0.0,0.0,91,0.00,,,0.00,Wunderground v.1.15,2013-06-26 07:00:00,
2013-06-26 02:05:00,70.9,68.1,29.56,West,269,0.0,0.0,91,0.00,,,0.00,Wunderground v.1.15,2013-06-26 07:05:00,
2013-06-26 02:11:00,70.7,67.9,29.56,West,269,0.0,0.0,91,0.00,,,0.00,Wunderground v.1.15,2013-06-26 07:11:00,
2013-06-26 02:16:00,70.5,67.7,29.56,West,269,0.0,0.0,91,0.00,,,0.00,Wunderground v.1.15,2013-06-26 07:16:00,
2013-06-26 02:21:00,70.1,67.3,29.55,West,269,0.0,0.0,91,0.00,,,0.00,Wunderground v.1.15,2013-06-26 07:21:00,
2013-06-26 02:26:00,69.9,67.2,29.55,West,269,0.0,0.0,91,0.00,,,0.00,Wunderground v.1.15,2013-06-26 07:26:00,
2013-06-26 02:31:00,70.1,67.3,29.55,West,268,0.0,0.0,91,0.00,,,0.00,Wunderground v.1.15,2013-06-26 07:31:00,
2013-06-26 02:36:00,69.9,67.2,29.55,West,268,0.0,0.0,91,0.00,,,0.00,Wunderground v.1.15,2013-06-26 07:36:00,
2013-06-26 02:41:00,69.9,67.2,29.55,West,268,0.0,0.0,91,0.00,,,0.00,Wunderground v.1.15,2013-06-26 07:41:00,
2013-06-26 02:46:00,69.9,67.2,29.55,West,269,0.0,0.0,91,0.00,,,0.00,Wunderground v.1.15,2013-06-26 07:46:00,
2013-06-26 02:51:00,69.9,67.5,29.55,West,269,0.0,0.0,92,0.00,,,0.00,Wunderground v.1.15,2013-06-26 07:51:00,
2013-06-26 02:56:00,69.4,66.7,29.55,West,269,0.0,0.0,91,0.00,,,0.00,Wunderground v.1.15,2013-06-26 07:56:00,
2013-06-26 03:01:00,69.3,66.9,29.56,West,268,0.0,0.0,92,0.00,,,0.00,Wunderground v.1.15,2013-06-26 08:01:00,
2013-06-26 03:06:00,69.0,66.3,29.55,West,269,0.0,0.0,91,0.00,,,0.00,Wunderground v.1.15,2013-06-26 08:06:00,
2013-06-26 03:11:00,68.8,66.1,29.56,West,268,0.0,0.0,91,0.00,,,0.00,Wunderground v.1.15,2013-06-26 08:11:00,
2013-06-26 03:16:00,68.6,66.2,29.56,West,269,0.0,0.0,92,0.00,,,0.00,Wunderground v.1.15,2013-06-26 08:16:00,
2013-06-26 03:21:00,68.2,65.5,29.56,West,269,0.0,0.0,91,0.00,,,0.00,Wunderground v.1.15,2013-06-26 08:21:00,
2013-06-26 03:26:00,68.1,65.7,29.56,West,268,0.0,0.0,92,0.00,,,0.00,Wunderground v.1.15,2013-06-26 08:26:00,
2013-06-26 03:31:00,68.2,65.8,29.56,West,269,0.0,0.0,92,0.00,,,0.00,Wunderground v.1.15,2013-06-26 08:31:00,
2013-06-26 03:36:00,68.6,66.2,29.56,West,269,0.0,0.0,92,0.00,,,0.00,Wunderground v.1.15,2013-06-26 08:36:00,
2013-06-26 03:41:00,68.6,66.2,29.56,West,268,0.0,0.0,92,0.00,,,0.00,Wunderground v.1.15,2013-06-26 08:41:00,
2013-06-26 03:46:00,68.5,66.1,29.56,West,269,0.0,0.0,92,0.00,,,0.00,Wunderground v.1.15,2013-06-26 08:46:00,
2013-06-26 03:51:00,68.6,66.2,29.56,West,268,0.0,0.0,92,0.00,,,0.00,Wunderground v.1.15,2013-06-26 08:51:00,
2013-06-26 03:56:00,68.6,66.5,29.56,West,268,0.0,0.0,93,0.00,,,0.00,Wunderground v.1.15,2013-06-26 08:56:00,
2013-06-26 04:01:00,68.9,66.8,29.56,West,269,0.0,0.0,93,0.00,,,0.00,Wunderground v.1.15,2013-06-26 09:01:00,
2013-06-26 04:06:00,68.9,66.8,29.56,West,268,0.0,0.0,93,0.00,,,0.00,Wunderground v.1.15,2013-06-26 09:06:00,
2013-06-26 04:11:00,68.8,66.7,29.56,West,269,0.0,0.0,93,0.00,,,0.00,Wunderground v.1.15,2013-06-26 09:11:00,
2013-06-26 04:16:00,69.0,66.9,29.56,West,269,0.0,0.0,93,0.00,,,0.00,Wunderground v.1.15,2013-06-26 09:16:00,
2013-06-26 04:21:00,69.3,67.2,29.56,West,269,0.0,0.0,93,0.00,,,0.00,Wunderground v.1.15,2013-06-26 09:21:00,
2013-06-26 04:26:00,68.7,66.6,29.56,West,269,0.0,0.0,93,0.00,,,0.00,Wunderground v.1.15,2013-06-26 09:26:00,
2013-06-26 04:31:00,68.5,66.4,29.56,West,269,0.0,0.0,93,0.00,,,0.00,Wunderground v.1.15,2013-06-26 09:31:00,
2013-06-26 04:36:00,68.8,66.7,29.56,West,269,0.0,0.0,93,0.00,,,0.00,Wunderground v.1.15,2013-06-26 09:36:00,
2013-06-26 04:42:00,68.8,66.7,29.56,West,269,0.0,0.0,93,0.00,,,0.00,Wunderground v.1.15,2013-06-26 09:42:00,
2013-06-26 04:47:00,69.2,67.1,29.56,West,269,0.0,0.0,93,0.00,,,0.00,Wunderground v.1.15,2013-06-26 09:47:00,
2013-06-26 04:52:00,69.3,67.2,29.56,West,268,0.0,0.0,93,0.00,,,0.00,Wunderground v.1.15,2013-06-26 09:52:00,
2013-06-26 04:57:00,70.1,68.0,29.56,West,269,0.0,0.0,93,0.00,,,0.00,Wunderground v.1.15,2013-06-26 09:57:00,
2013-06-26 05:02:00,69.9,67.8,29.56,West,268,0.0,0.0,93,0.00,,,0.00,Wunderground v.1.15,2013-06-26 10:02:00,
2013-06-26 05:07:00,70.1,68.0,29.56,West,268,0.0,0.0,93,0.00,,,0.00,Wunderground v.1.15,2013-06-26 10:07:00,
2013-06-26 05:12:00,70.5,68.4,29.56,West,269,0.0,0.0,93,0.00,,,0.00,Wunderground v.1.15,2013-06-26 10:12:00,
2013-06-26 05:17:00,70.5,68.4,29.56,West,269,0.0,0.0,93,0.00,,,0.00,Wunderground v.1.15,2013-06-26 10:17:00,
2013-06-26 05:22:00,70.5,68.4,29.56,West,269,0.0,0.0,93,0.00,,,0.00,Wunderground v.1.15,2013-06-26 10:22:00,
2013-06-26 05:27:00,70.8,68.7,29.56,West,269,0.0,0.0,93,0.00,,,0.00,Wunderground v.1.15,2013-06-26 10:27:00,
2013-06-26 05:32:00,70.8,68.7,29.56,West,269,0.0,0.0,93,0.00,,,0.00,Wunderground v.1.15,2013-06-26 10:32:00,
2013-06-26 05:37:00,70.8,68.7,29.57,West,269,0.0,0.0,93,0.00,,,0.00,Wunderground v.1.15,2013-06-26 10:37:00,
2013-06-26 05:42:00,70.8,68.7,29.57,West,268,1.0,3.0,93,0.00,,,0.00,Wunderground v.1.15,2013-06-26 10:42:00,
2013-06-26 05:47:00,70.5,68.4,29.57,West,269,2.0,3.0,93,0.00,,,0.00,Wunderground v.1.15,2013-06-26 10:47:00,
2013-06-26 05:52:00,70.3,68.2,29.57,West,269,0.0,2.0,93,0.00,,,0.00,Wunderground v.1.15,2013-06-26 10:52:00,
2013-06-26 05:57:00,70.1,68.0,29.57,West,269,0.0,2.0,93,0.00,,,0.00,Wunderground v.1.15,2013-06-26 10:57:00,
2013-06-26 06:02:00,69.6,67.5,29.57,West,269,2.0,3.0,93,0.00,,,0.00,Wunderground v.1.15,2013-06-26 11:02:00,
2013-06-26 06:07:00,70.4,68.3,29.57,West,267,1.0,3.0,93,0.00,,,0.00,Wunderground v.1.15,2013-06-26 11:07:00,
2013-06-26 06:12:00,70.8,69.0,29.57,West,267,0.0,1.0,94,0.00,,,0.00,Wunderground v.1.15,2013-06-26 11:12:00,
2013-06-26 06:17:00,70.3,68.2,29.57,West,267,0.0,1.0,93,0.00,,,0.00,Wunderground v.1.15,2013-06-26 11:17:00,
2013-06-26 06:22:00,69.4,67.3,29.58,West,267,0.0,0.0,93,0.00,,,0.00,Wunderground v.1.15,2013-06-26 11:22:00,
2013-06-26 06:27:00,69.4,67.3,29.58,West,267,0.0,0.0,93,0.00,,,0.00,Wunderground v.1.15,2013-06-26 11:27:00,
2013-06-26 06:32:00,69.6,67.5,29.58,West,267,0.0,0.0,93,0.00,,,0.00,Wunderground v.1.15,2013-06-26 11:32:00,
2013-06-26 06:37:00,70.2,68.4,29.58,West,267,0.0,0.0,94,0.00,,,0.00,Wunderground v.1.15,2013-06-26 11:37:00,
2013-06-26 06:42:00,70.8,69.0,29.59,West,267,1.0,4.0,94,0.00,,,0.00,Wunderground v.1.15,2013-06-26 11:42:00,
2013-06-26 06:47:00,71.0,69.2,29.59,West,267,3.0,5.0,94,0.00,,,0.00,Wunderground v.1.15,2013-06-26 11:47:00,
2013-06-26 06:52:00,71.2,69.4,29.59,West,267,0.0,3.0,94,0.00,,,0.00,Wunderground v.1.15,2013-06-26 11:52:00,
2013-06-26 06:57:00,71.3,69.5,29.59,West,267,2.0,3.0,94,0.00,,,0.00,Wunderground v.1.15,2013-06-26 11:57:00,
2013-06-26 07:02:00,71.3,69.5,29.59,West,267,3.0,3.0,94,0.00,,,0.00,Wunderground v.1.15,2013-06-26 12:02:00,
2013-06-26 07:07:00,71.3,69.5,29.59,West,267,1.0,4.0,94,0.00,,,0.00,Wunderground v.1.15,2013-06-26 12:07:00,
2013-06-26 07:12:00,71.5,69.7,29.59,West,267,0.0,2.0,94,0.00,,,0.00,Wunderground v.1.15,2013-06-26 12:12:00,
2013-06-26 07:17:00,71.9,70.1,29.59,West,267,0.0,2.0,94,0.00,,,0.00,Wunderground v.1.15,2013-06-26 12:17:00,
2013-06-26 07:22:00,72.3,70.5,29.59,West,267,2.0,4.0,94,0.00,,,0.00,Wunderground v.1.15,2013-06-26 12:22:00,
2013-06-26 07:27:00,72.6,70.8,29.60,North,9,3.0,4.0,94,0.00,,,0.00,Wunderground v.1.15,2013-06-26 12:27:00,
2013-06-26 07:32:00,72.9,71.1,29.60,WSW,246,5.0,7.0,94,0.00,,,0.00,Wunderground v.1.15,2013-06-26 12:32:00,
2013-06-26 07:37:00,73.1,71.3,29.60,West,259,3.0,7.0,94,0.00,,,0.00,Wunderground v.1.15,2013-06-26 12:37:00,
2013-06-26 07:42:00,73.4,71.6,29.59,West,271,9.0,9.0,94,0.00,,,0.00,Wunderground v.1.15,2013-06-26 12:42:00,
2013-06-26 07:47:00,73.6,71.8,29.60,West,276,5.0,9.0,94,0.00,,,0.00,Wunderground v.1.15,2013-06-26 12:47:00,
2013-06-26 07:52:00,73.9,71.7,29.60,West,281,6.0,8.0,93,0.00,,,0.00,Wunderground v.1.15,2013-06-26 12:52:00,
2013-06-26 07:57:00,73.9,71.7,29.60,WNW,285,6.0,9.0,93,0.00,,,0.00,Wunderground v.1.15,2013-06-26 12:57:00,
2013-06-26 08:02:00,74.4,72.2,29.60,WNW,284,6.0,7.0,93,0.00,,,0.00,Wunderground v.1.15,2013-06-26 13:02:00,
2013-06-26 08:07:00,74.6,72.1,29.60,WNW,285,6.0,8.0,92,0.00,,,0.00,Wunderground v.1.15,2013-06-26 13:07:00,
2013-06-26 08:13:00,74.7,72.2,29.60,WNW,290,8.0,8.0,92,0.00,,,0.00,Wunderground v.1.15,2013-06-26 13:13:00,
2013-06-26 08:18:00,74.9,72.1,29.60,NW,310,10.0,11.0,91,0.00,,,0.00,Wunderground v.1.15,2013-06-26 13:18:00,
2013-06-26 08:22:00,75.0,71.9,29.60,WNW,299,10.0,11.0,90,0.00,,,0.00,Wunderground v.1.15,2013-06-26 13:22:00,
2013-06-26 08:27:00,75.1,71.6,29.60,WNW,297,8.0,14.0,89,0.00,,,0.00,Wunderground v.1.15,2013-06-26 13:27:00,
2013-06-26 08:32:00,75.3,71.5,29.60,WNW,301,6.0,10.0,88,0.00,,,0.00,Wunderground v.1.15,2013-06-26 13:32:00,
2013-06-26 08:37:00,75.5,71.4,29.60,NW,306,8.0,13.0,87,0.00,,,0.00,Wunderground v.1.15,2013-06-26 13:37:00,
2013-06-26 08:43:00,75.7,71.2,29.61,NW,306,11.0,11.0,86,0.00,,,0.00,Wunderground v.1.15,2013-06-26 13:43:00,
2013-06-26 08:48:00,75.7,71.2,29.61,NW,312,10.0,12.0,86,0.00,,,0.00,Wunderground v.1.15,2013-06-26 13:48:00,
2013-06-26 08:53:00,75.7,70.9,29.61,NW,323,11.0,13.0,85,0.00,,,0.00,Wunderground v.1.15,2013-06-26 13:53:00,
2013-06-26 08:58:00,76.1,70.6,29.62,NW,319,6.0,13.0,83,0.00,,,0.00,Wunderground v.1.15,2013-06-26 13:58:00,
2013-06-26 09:03:00,76.3,70.4,29.62,NW,315,8.0,10.0,82,0.00,,,0.00,Wunderground v.1.15,2013-06-26 14:03:00,
2013-06-26 09:08:00,76.5,70.2,29.62,NW,315,5.0,11.0,81,0.00,,,0.00,Wunderground v.1.15,2013-06-26 14:08:00,
2013-06-26 09:13:00,76.7,70.8,29.62,NW,309,3.0,9.0,82,0.00,,,0.00,Wunderground v.1.15,2013-06-26 14:13:00,
2013-06-26 09:18:00,76.9,70.3,29.62,NW,325,8.0,12.0,80,0.00,,,0.00,Wunderground v.1.15,2013-06-26 14:18:00,
2013-06-26 09:23:00,76.9,69.9,29.62,NW,311,6.0,10.0,79,0.00,,,0.00,Wunderground v.1.15,2013-06-26 14:23:00,
2013-06-26 09:28:00,77.0,70.0,29.63,NW,311,5.0,12.0,79,0.00,,,0.00,Wunderground v.1.15,2013-06-26 14:28:00,
2013-06-26 09:33:00,77.0,70.0,29.63,NW,317,12.0,12.0,79,0.00,,,0.00,Wunderground v.1.15,2013-06-26 14:33:00,
2013-06-26 09:38:00,76.8,69.8,29.63,NW,311,9.0,12.0,79,0.00,,,0.00,Wunderground v.1.15,2013-06-26 14:38:00,
2013-06-26 09:43:00,77.1,70.1,29.63,NW,318,5.0,9.0,79,0.00,,,0.00,Wunderground v.1.15,2013-06-26 14:43:00,
2013-06-26 09:48:00,77.4,70.4,29.63,NW,319,4.0,10.0,79,0.00,,,0.00,Wunderground v.1.15,2013-06-26 14:48:00,
2013-06-26 09:53:00,77.5,70.1,29.64,NW,317,5.0,10.0,78,0.00,,,0.00,Wunderground v.1.15,2013-06-26 14:53:00,
2013-06-26 09:58:00,77.5,69.7,29.64,NW,306,9.0,13.0,77,0.00,,,0.00,Wunderground v.1.15,2013-06-26 14:58:00,
2013-06-26 10:03:00,77.6,70.2,29.64,NW,310,5.0,11.0,78,0.00,,,0.00,Wunderground v.1.15,2013-06-26 15:03:00,
2013-06-26 10:08:00,78.1,70.7,29.64,NW,313,8.0,11.0,78,0.00,,,0.00,Wunderground v.1.15,2013-06-26 15:08:00,
2013-06-26 10:13:00,78.1,69.9,29.64,NW,311,7.0,12.0,76,0.00,,,0.00,Wunderground v.1.15,2013-06-26 15:13:00,
2013-06-26 10:18:00,78.1,70.3,29.64,NW,315,7.0,12.0,77,0.00,,,0.00,Wunderground v.1.15,2013-06-26 15:18:00,
2013-06-26 10:23:00,78.0,69.4,29.64,NW,306,6.0,12.0,75,0.00,,,0.00,Wunderground v.1.15,2013-06-26 15:23:00,
2013-06-26 10:28:00,78.2,70.8,29.64,NW,321,5.0,12.0,78,0.00,,,0.00,Wunderground v.1.15,2013-06-26 15:28:00,
2013-06-26 10:33:00,78.6,70.8,29.64,NW,306,7.0,10.0,77,0.00,,,0.00,Wunderground v.1.15,2013-06-26 15:33:00,
2013-06-26 10:38:00,78.7,70.1,29.65,NW,315,8.0,12.0,75,0.00,,,0.00,Wunderground v.1.15,2013-06-26 15:38:00,
2013-06-26 10:43:00,78.6,70.0,29.65,NW,316,5.0,14.0,75,0.00,,,0.00,Wunderground v.1.15,2013-06-26 15:43:00,
2013-06-26 10:48:00,78.8,71.4,29.65,NW,314,5.0,14.0,78,0.00,,,0.00,Wunderground v.1.15,2013-06-26 15:48:00,
2013-06-26 10:53:00,79.0,70.8,29.65,NW,320,6.0,11.0,76,0.00,,,0.00,Wunderground v.1.15,2013-06-26 15:53:00,
2013-06-26 10:58:00,79.3,71.1,29.65,NW,314,5.0,11.0,76,0.00,,,0.00,Wunderground v.1.15,2013-06-26 15:58:00,
2013-06-26 11:03:00,79.5,70.9,29.65,NW,325,12.0,12.0,75,0.00,,,0.00,Wunderground v.1.15,2013-06-26 16:03:00,
2013-06-26 11:08:00,79.4,70.8,29.65,WNW,303,10.0,12.0,75,0.00,,,0.00,Wunderground v.1.15,2013-06-26 16:08:00,
2013-06-26 11:13:00,79.8,71.9,29.65,NW,319,4.0,14.0,77,0.00,,,0.00,Wunderground v.1.15,2013-06-26 16:13:00,
2013-06-26 11:18:00,80.0,70.6,29.65,NW,317,6.0,14.0,73,0.00,,,0.00,Wunderground v.1.15,2013-06-26 16:18:00,
2013-06-26 11:23:00,80.2,70.8,29.65,NW,321,7.0,15.0,73,0.00,,,0.00,Wunderground v.1.15,2013-06-26 16:23:00,
2013-06-26 11:28:00,80.5,71.0,29.66,NW,315,9.0,15.0,73,0.00,,,0.00,Wunderground v.1.15,2013-06-26 16:28:00,
2013-06-26 11:33:00,80.7,70.8,29.66,NW,311,8.0,15.0,72,0.00,,,0.00,Wunderground v.1.15,2013-06-26 16:33:00,
2013-06-26 11:38:00,81.1,71.2,29.66,NW,321,2.0,15.0,72,0.00,,,0.00,Wunderground v.1.15,2013-06-26 16:38:00,
2013-06-26 11:44:00,81.3,71.0,29.66,NW,315,5.0,15.0,71,0.00,,,0.00,Wunderground v.1.15,2013-06-26 16:44:00,
2013-06-26 11:49:00,81.3,70.2,29.66,NNW,327,8.0,15.0,69,0.00,,,0.00,Wunderground v.1.15,2013-06-26 16:49:00,
2013-06-26 11:54:00,81.0,69.9,29.67,NW,310,10.0,18.0,69,0.00,,,0.00,Wunderground v.1.15,2013-06-26 16:54:00,
2013-06-26 11:59:00,81.5,69.5,29.67,WNW,299,9.0,18.0,67,0.00,,,0.00,Wunderground v.1.15,2013-06-26 16:59:00,
2013-06-26 12:04:00,81.8,69.8,29.67,WNW,297,13.0,15.0,67,0.00,,,0.00,Wunderground v.1.15,2013-06-26 17:04:00,
2013-06-26 12:09:00,82.0,69.5,29.67,NW,304,9.0,17.0,66,0.00,,,0.00,Wunderground v.1.15,2013-06-26 17:09:00,
2013-06-26 12:14:00,82.2,69.3,29.67,NW,313,10.0,16.0,65,0.00,,,0.00,Wunderground v.1.15,2013-06-26 17:14:00,
2013-06-26 12:19:00,82.4,69.0,29.67,WNW,300,8.0,16.0,64,0.00,,,0.00,Wunderground v.1.15,2013-06-26 17:19:00,
2013-06-26 12:24:00,82.5,67.7,29.67,NW,321,13.0,15.0,61,0.00,,,0.00,Wunderground v.1.15,2013-06-26 17:24:00,
2013-06-26 12:29:00,82.7,67.4,29.68,NW,313,13.0,17.0,60,0.00,,,0.00,Wunderground v.1.15,2013-06-26 17:29:00,
2013-06-26 12:34:00,82.7,67.9,29.68,NW,306,8.0,12.0,61,0.00,,,0.00,Wunderground v.1.15,2013-06-26 17:34:00,
2013-06-26 12:39:00,83.0,66.7,29.68,NW,314,9.0,16.0,58,0.00,,,0.00,Wunderground v.1.15,2013-06-26 17:39:00,
2013-06-26 12:44:00,83.1,67.3,29.68,NW,306,10.0,15.0,59,0.00,,,0.00,Wunderground v.1.15,2013-06-26 17:44:00,
2013-06-26 12:49:00,83.3,67.0,29.68,NW,309,15.0,15.0,58,0.00,,,0.00,Wunderground v.1.15,2013-06-26 17:49:00,
2013-06-26 12:54:00,83.2,66.4,29.68,NW,309,15.0,17.0,57,0.00,,,0.00,Wunderground v.1.15,2013-06-26 17:54:00,
2013-06-26 12:59:00,83.4,66.6,29.68,WNW,302,15.0,17.0,57,0.00,,,0.00,Wunderground v.1.15,2013-06-26 17:59:00,
2013-06-26 13:04:00,83.5,67.7,29.68,WNW,292,9.0,17.0,59,0.00,,,0.00,Wunderground v.1.15,2013-06-26 18:04:00,
2013-06-26 13:09:00,83.4,66.1,29.68,NW,311,10.0,18.0,56,0.00,,,0.00,Wunderground v.1.15,2013-06-26 18:09:00,
2013-06-26 13:14:00,83.4,66.6,29.68,WNW,286,14.0,18.0,57,0.00,,,0.00,Wunderground v.1.15,2013-06-26 18:14:00,
2013-06-26 13:19:00,83.4,66.6,29.68,NW,306,12.0,19.0,57,0.00,,,0.00,Wunderground v.1.15,2013-06-26 18:19:00,
2013-06-26 13:24:00,83.4,66.1,29.68,WNW,294,12.0,18.0,56,0.00,,,0.00,Wunderground v.1.15,2013-06-26 18:24:00,
2013-06-26 13:29:00,83.6,65.7,29.68,WNW,300,12.0,18.0,55,0.00,,,0.00,Wunderground v.1.15,2013-06-26 18:29:00,
2013-06-26 13:34:00,83.6,65.7,29.68,WNW,292,9.0,16.0,55,0.00,,,0.00,Wunderground v.1.15,2013-06-26 18:34:00,
2013-06-26 13:39:00,83.7,66.3,29.68,WNW,302,12.0,19.0,56,0.00,,,0.00,Wunderground v.1.15,2013-06-26 18:39:00,
2013-06-26 13:44:00,83.9,67.5,29.69,WNW,292,12.0,19.0,58,0.00,,,0.00,Wunderground v.1.15,2013-06-26 18:44:00,
2013-06-26 13:49:00,83.5,65.6,29.68,NW,312,9.0,19.0,55,0.00,,,0.00,Wunderground v.1.15,2013-06-26 18:49:00,
2013-06-26 13:54:00,83.3,66.5,29.68,WNW,298,13.0,19.0,57,0.00,,,0.00,Wunderground v.1.15,2013-06-26 18:54:00,
2013-06-26 13:59:00,83.6,66.8,29.68,NW,315,11.0,19.0,57,0.00,,,0.00,Wunderground v.1.15,2013-06-26 18:59:00,
2013-06-26 14:04:00,83.8,66.4,29.68,NW,304,14.0,18.0,56,0.00,,,0.00,Wunderground v.1.15,2013-06-26 19:04:00,
2013-06-26 14:09:00,83.9,64.9,29.68,NW,315,13.0,18.0,53,0.00,,,0.00,Wunderground v.1.15,2013-06-26 19:09:00,
2013-06-26 14:14:00,84.1,64.0,29.69,NW,304,12.0,18.0,51,0.00,,,0.00,Wunderground v.1.15,2013-06-26 19:14:00,
2013-06-26 14:19:00,84.3,65.8,29.69,WNW,296,14.0,18.0,54,0.00,,,0.00,Wunderground v.1.15,2013-06-26 19:19:00,
2013-06-26 14:24:00,84.5,66.0,29.69,NW,313,10.0,18.0,54,0.00,,,0.00,Wunderground v.1.15,2013-06-26 19:24:00,
2013-06-26 14:29:00,84.4,64.9,29.69,WNW,290,7.0,20.0,52,0.00,,,0.00,Wunderground v.1.15,2013-06-26 19:29:00,
2013-06-26 14:34:00,84.4,65.9,29.69,NW,313,18.0,18.0,54,0.00,,,0.00,Wunderground v.1.15,2013-06-26 19:34:00,
2013-06-26 14:39:00,84.2,64.7,29.69,NW,310,14.0,19.0,52,0.00,,,0.00,Wunderground v.1.15,2013-06-26 19:39:00,
2013-06-26 14:44:00,84.1,66.2,29.69,NW,306,15.0,20.0,55,0.00,,,0.00,Wunderground v.1.15,2013-06-26 19:44:00,
2013-06-26 14:49:00,84.3,65.3,29.69,NW,311,14.0,20.0,53,0.00,,,0.00,Wunderground v.1.15,2013-06-26 19:49:00,
2013-06-26 14:54:00,83.9,64.4,29.69,WNW,296,11.0,19.0,52,0.00,,,0.00,Wunderground v.1.15,2013-06-26 19:54:00,
2013-06-26 14:59:00,84.1,64.6,29.69,NW,305,13.0,20.0,52,0.00,,,0.00,Wunderground v.1.15,2013-06-26 19:59:00,
2013-06-26 15:04:00,83.6,64.1,29.69,NW,318,10.0,19.0,52,0.00,,,0.00,Wunderground v.1.15,2013-06-26 20:04:00,
2013-06-26 15:09:00,84.2,63.5,29.69,NW,319,10.0,14.0,50,0.00,,,0.00,Wunderground v.1.15,2013-06-26 20:09:00,
2013-06-26 15:15:00,84.3,63.1,29.69,NW,305,11.0,18.0,49,0.00,,,0.00,Wunderground v.1.15,2013-06-26 20:15:00,
2013-06-26 15:20:00,84.1,64.0,29.69,NW,313,19.0,19.0,51,0.00,,,0.00,Wunderground v.1.15,2013-06-26 20:20:00,
2013-06-26 15:25:00,83.8,64.8,29.69,NW,306,15.0,19.0,53,0.00,,,0.00,Wunderground v.1.15,2013-06-26 20:25:00,
2013-06-26 15:30:00,84.1,65.1,29.69,NW,304,7.0,13.0,53,0.00,,,0.00,Wunderground v.1.15,2013-06-26 20:30:00,
2013-06-26 15:35:00,84.2,64.7,29.69,WNW,296,11.0,18.0,52,0.00,,,0.00,Wunderground v.1.15,2013-06-26 20:35:00,
2013-06-26 15:40:00,84.2,65.2,29.69,NW,313,17.0,17.0,53,0.00,,,0.00,Wunderground v.1.15,2013-06-26 20:40:00,
2013-06-26 15:45:00,84.2,64.7,29.69,NW,304,13.0,21.0,52,0.00,,,0.00,Wunderground v.1.15,2013-06-26 20:45:00,
2013-06-26 15:50:00,84.5,65.5,29.69,WNW,297,18.0,19.0,53,0.00,,,0.00,Wunderground v.1.15,2013-06-26 20:50:00,
2013-06-26 15:55:00,84.6,64.5,29.69,NW,305,17.0,19.0,51,0.00,,,0.00,Wunderground v.1.15,2013-06-26 20:55:00,
2013-06-26 16:00:00,84.3,63.6,29.69,NW,313,16.0,16.0,50,0.00,,,0.00,Wunderground v.1.15,2013-06-26 21:00:00,
2013-06-26 16:05:00,84.1,65.1,29.69,WNW,302,15.0,19.0,53,0.00,,,0.00,Wunderground v.1.15,2013-06-26 21:05:00,
2013-06-26 16:10:00,84.3,64.2,29.69,WNW,294,16.0,17.0,51,0.00,,,0.00,Wunderground v.1.15,2013-06-26 21:10:00,
2013-06-26 16:15:00,84.3,65.8,29.69,NW,310,13.0,17.0,54,0.00,,,0.00,Wunderground v.1.15,2013-06-26 21:15:00,
2013-06-26 16:20:00,83.9,63.8,29.69,NW,312,12.0,13.0,51,0.00,,,0.00,Wunderground v.1.15,2013-06-26 21:20:00,
2013-06-26 16:25:00,83.9,63.8,29.69,West,281,11.0,15.0,51,0.00,,,0.00,Wunderground v.1.15,2013-06-26 21:25:00,
2013-06-26 16:30:00,84.1,64.6,29.69,WNW,301,14.0,14.0,52,0.00,,,0.00,Wunderground v.1.15,2013-06-26 21:30:00,
2013-06-26 16:35:00,84.4,64.9,29.70,WNW,298,12.0,17.0,52,0.00,,,0.00,Wunderground v.1.15,2013-06-26 21:35:00,
2013-06-26 16:40:00,84.3,64.2,29.70,WNW,300,12.0,13.0,51,0.00,,,0.00,Wunderground v.1.15,2013-06-26 21:40:00,
2013-06-26 16:45:00,84.3,64.2,29.70,NW,310,13.0,16.0,51,0.00,,,0.00,Wunderground v.1.15,2013-06-26 21:45:00,
2013-06-26 16:50:00,84.1,63.5,29.70,WNW,302,11.0,18.0,50,0.00,,,0.00,Wunderground v.1.15,2013-06-26 21:50:00,
2013-06-26 16:56:00,84.2,64.1,29.70,NW,304,10.0,18.0,51,0.00,,,0.00,Wunderground v.1.15,2013-06-26 21:56:00,
2013-06-26 17:01:00,84.5,64.4,29.70,NW,304,12.0,12.0,51,0.00,,,0.00,Wunderground v.1.15,2013-06-26 22:01:00,
2013-06-26 17:06:00,84.6,65.0,29.70,NW,311,10.0,13.0,52,0.00,,,0.00,Wunderground v.1.15,2013-06-26 22:06:00,
2013-06-26 17:11:00,84.7,65.1,29.70,WNW,291,11.0,14.0,52,0.00,,,0.00,Wunderground v.1.15,2013-06-26 22:11:00,
2013-06-26 17:16:00,84.7,64.6,29.70,WNW,296,9.0,14.0,51,0.00,,,0.00,Wunderground v.1.15,2013-06-26 22:16:00,
2013-06-26 17:21:00,84.1,65.1,29.70,NW,304,8.0,9.0,53,0.00,,,0.00,Wunderground v.1.15,2013-06-26 22:21:00,
2013-06-26 17:26:00,84.1,65.1,29.70,WNW,298,8.0,13.0,53,0.00,,,0.00,Wunderground v.1.15,2013-06-26 22:26:00,
2013-06-26 17:31:00,84.3,65.8,29.70,NW,308,10.0,12.0,54,0.00,,,0.00,Wunderground v.1.15,2013-06-26 22:31:00,
2013-06-26 17:36:00,84.4,65.4,29.70,WNW,298,6.0,15.0,53,0.00,,,0.00,Wunderground v.1.15,2013-06-26 22:36:00,
2013-06-26 17:41:00,84.3,64.8,29.70,WNW,288,12.0,12.0,52,0.00,,,0.00,Wunderground v.1.15,2013-06-26 22:41:00,
2013-06-26 17:46:00,84.3,64.2,29.70,WNW,299,9.0,13.0,51,0.00,,,0.00,Wunderground v.1.15,2013-06-26 22:46:00,
2013-06-26 17:51:00,84.5,64.4,29.70,NW,305,9.0,16.0,51,0.00,,,0.00,Wunderground v.1.15,2013-06-26 22:51:00,
2013-06-26 17:56:00,84.4,64.3,29.70,WNW,300,10.0,16.0,51,0.00,,,0.00,Wunderground v.1.15,2013-06-26 22:56:00,
2013-06-26 18:01:00,84.2,64.7,29.70,WNW,303,8.0,12.0,52,0.00,,,0.00,Wunderground v.1.15,2013-06-26 23:01:00,
2013-06-26 18:06:00,84.1,63.5,29.70,NW,307,10.0,14.0,50,0.00,,,0.00,Wunderground v.1.15,2013-06-26 23:06:00,
2013-06-26 18:11:00,83.8,63.7,29.70,NW,306,10.0,11.0,51,0.00,,,0.00,Wunderground v.1.15,2013-06-26 23:11:00,
2013-06-26 18:16:00,84.1,64.6,29.70,NW,304,7.0,11.0,52,0.00,,,0.00,Wunderground v.1.15,2013-06-26 23:16:00,
2013-06-26 18:21:00,84.0,64.5,29.70,NW,306,7.0,9.0,52,0.00,,,0.00,Wunderground v.1.15,2013-06-26 23:21:00,
2013-06-26 18:26:00,84.0,63.9,29.70,NW,310,7.0,11.0,51,0.00,,,0.00,Wunderground v.1.15,2013-06-26 23:26:00,
2013-06-26 18:31:00,83.9,64.4,29.70,NW,321,5.0,8.0,52,0.00,,,0.00,Wunderground v.1.15,2013-06-26 23:31:00,
2013-06-26 18:36:00,83.4,63.9,29.70,NW,313,6.0,9.0,52,0.00,,,0.00,Wunderground v.1.15,2013-06-26 23:36:00,
2013-06-26 18:42:00,83.0,64.6,29.70,NW,306,4.0,7.0,54,0.00,,,0.00,Wunderground v.1.15,2013-06-26 23:42:00,
2013-06-26 18:47:00,83.2,64.8,29.70,NW,307,4.0,7.0,54,0.00,,,0.00,Wunderground v.1.15,2013-06-26 23:47:00,
2013-06-26 18:52:00,83.7,63.7,29.70,NW,317,4.0,8.0,51,0.00,,,0.00,Wunderground v.1.15,2013-06-26 23:52:00,
2013-06-26 18:57:00,83.8,64.3,29.70,NW,309,7.0,8.0,52,0.00,,,0.00,Wunderground v.1.15,2013-06-26 23:57:00,
2013-06-26 19:02:00,83.6,64.1,29.70,NW,315,4.0,9.0,52,0.00,,,0.00,Wunderground v.1.15,2013-06-27 00:02:00,
2013-06-26 19:07:00,83.3,64.4,29.70,NW,309,4.0,9.0,53,0.00,,,0.00,Wunderground v.1.15,2013-06-27 00:07:00,
2013-06-26 19:12:00,83.2,65.4,29.70,NW,304,4.0,6.0,55,0.00,,,0.00,Wunderground v.1.15,2013-06-27 00:12:00,
2013-06-26 19:17:00,83.2,65.9,29.70,NW,304,3.0,6.0,56,0.00,,,0.00,Wunderground v.1.15,2013-06-27 00:17:00,
2013-06-26 19:22:00,83.2,64.8,29.70,NW,308,4.0,7.0,54,0.00,,,0.00,Wunderground v.1.15,2013-06-27 00:22:00,
2013-06-26 19:27:00,82.8,65.0,29.70,NW,307,2.0,7.0,55,0.00,,,0.00,Wunderground v.1.15,2013-06-27 00:27:00,
2013-06-26 19:32:00,82.2,63.9,29.70,NW,307,4.0,4.0,54,0.00,,,0.00,Wunderground v.1.15,2013-06-27 00:32:00,
2013-06-26 19:37:00,82.0,63.7,29.70,NW,315,1.0,5.0,54,0.00,,,0.00,Wunderground v.1.15,2013-06-27 00:37:00,
2013-06-26 19:42:00,82.0,63.7,29.70,NW,315,2.0,3.0,54,0.00,,,0.00,Wunderground v.1.15,2013-06-27 00:42:00,
2013-06-26 19:47:00,81.7,64.5,29.70,NW,315,2.0,3.0,56,0.00,,,0.00,Wunderground v.1.15,2013-06-27 00:47:00,
2013-06-26 19:52:00,81.1,64.4,29.70,NW,315,2.0,2.0,57,0.00,,,0.00,Wunderground v.1.15,2013-06-27 00:52:00,
2013-06-26 19:57:00,80.7,65.5,29.70,NW,316,0.0,2.0,60,0.00,,,0.00,Wunderground v.1.15,2013-06-27 00:57:00,
2013-06-26 20:02:00,80.3,66.1,29.70,NW,315,0.0,1.0,62,0.00,,,0.00,Wunderground v.1.15,2013-06-27 01:02:00,
2013-06-26 20:07:00,80.1,66.4,29.70,NW,316,0.0,1.0,63,0.00,,,0.00,Wunderground v.1.15,2013-06-27 01:07:00,
2013-06-26 20:12:00,79.9,66.6,29.70,NW,315,0.0,0.0,64,0.00,,,0.00,Wunderground v.1.15,2013-06-27 01:12:00,
2013-06-26 20:17:00,79.8,66.5,29.70,NW,316,0.0,0.0,64,0.00,,,0.00,Wunderground v.1.15,2013-06-27 01:17:00,
2013-06-26 20:22:00,79.2,64.6,29.71,NW,315,1.0,3.0,61,0.00,,,0.00,Wunderground v.1.15,2013-06-27 01:22:00,
2013-06-26 20:27:00,78.7,65.0,29.71,NW,315,2.0,3.0,63,0.00,,,0.00,Wunderground v.1.15,2013-06-27 01:27:00,
2013-06-26 20:32:00,78.2,65.0,29.71,NW,315,1.0,2.0,64,0.00,,,0.00,Wunderground v.1.15,2013-06-27 01:32:00,
2013-06-26 20:37:00,77.9,65.2,29.71,NW,316,0.0,2.0,65,0.00,,,0.00,Wunderground v.1.15,2013-06-27 01:37:00,
2013-06-26 20:42:00,77.1,64.9,29.72,NW,315,0.0,1.0,66,0.00,,,0.00,Wunderground v.1.15,2013-06-27 01:42:00,
2013-06-26 20:47:00,76.4,64.6,29.72,NW,316,0.0,1.0,67,0.00,,,0.00,Wunderground v.1.15,2013-06-27 01:47:00,
2013-06-26 20:52:00,75.8,64.5,29.72,NW,315,0.0,0.0,68,0.00,,,0.00,Wunderground v.1.15,2013-06-27 01:52:00,
2013-06-26 20:57:00,75.3,64.4,29.72,NW,315,0.0,0.0,69,0.00,,,0.00,Wunderground v.1.15,2013-06-27 01:57:00,
2013-06-26 21:02:00,74.9,64.5,29.72,South,178,0.0,0.0,70,0.00,,,0.00,Wunderground v.1.15,2013-06-27 02:02:00,
2013-06-26 21:07:00,74.5,64.5,29.72,South,178,0.0,0.0,71,0.00,,,0.00,Wunderground v.1.15,2013-06-27 02:07:00,
2013-06-26 21:12:00,74.1,64.5,29.72,South,178,0.0,0.0,72,0.00,,,0.00,Wunderground v.1.15,2013-06-27 02:12:00,
2013-06-26 21:17:00,73.7,64.5,29.72,South,178,0.0,0.0,73,0.00,,,0.00,Wunderground v.1.15,2013-06-27 02:17:00,
2013-06-26 21:22:00,73.3,65.7,29.72,South,178,0.0,0.0,77,0.00,,,0.00,Wunderground v.1.15,2013-06-27 02:22:00,
2013-06-26 21:27:00,72.6,64.6,29.72,South,178,0.0,0.0,76,0.00,,,0.00,Wunderground v.1.15,2013-06-27 02:27:00,
2013-06-26 21:32:00,72.0,64.0,29.73,South,178,0.0,0.0,76,0.00,,,0.00,Wunderground v.1.15,2013-06-27 02:32:00,
2013-06-26 21:37:00,71.5,63.5,29.73,South,178,0.0,0.0,76,0.00,,,0.00,Wunderground v.1.15,2013-06-27 02:37:00,
2013-06-26 21:42:00,71.1,63.5,29.73,South,178,0.0,0.0,77,0.00,,,0.00,Wunderground v.1.15,2013-06-27 02:42:00,
2013-06-26 21:47:00,70.6,63.4,29.73,South,178,0.0,0.0,78,0.00,,,0.00,Wunderground v.1.15,2013-06-27 02:47:00,
2013-06-26 21:52:00,70.4,63.2,29.74,South,178,0.0,0.0,78,0.00,,,0.00,Wunderground v.1.15,2013-06-27 02:52:00,
2013-06-26 21:57:00,70.2,63.4,29.74,South,178,0.0,0.0,79,0.00,,,0.00,Wunderground v.1.15,2013-06-27 02:57:00,
2013-06-26 22:02:00,70.1,63.3,29.74,South,178,0.0,0.0,79,0.00,,,0.00,Wunderground v.1.15,2013-06-27 03:02:00,
2013-06-26 22:07:00,70.0,63.2,29.74,South,178,0.0,0.0,79,0.00,,,0.00,Wunderground v.1.15,2013-06-27 03:07:00,
2013-06-26 22:12:00,69.9,63.1,29.74,South,178,0.0,0.0,79,0.00,,,0.00,Wunderground v.1.15,2013-06-27 03:12:00,
2013-06-26 22:13:00,69.9,63.1,29.74,South,178,0.0,0.0,79,0.00,,,0.00,Wunderground v.1.15,2013-06-27 03:13:00,
2013-06-26 22:18:00,69.6,62.8,29.74,South,178,0.0,0.0,79,0.00,,,0.00,Wunderground v.1.15,2013-06-27 03:18:00,
2013-06-26 22:23:00,69.4,63.0,29.74,South,178,0.0,0.0,80,0.00,,,0.00,Wunderground v.1.15,2013-06-27 03:23:00,
2013-06-26 22:28:00,69.2,62.8,29.74,South,178,0.0,0.0,80,0.00,,,0.00,Wunderground v.1.15,2013-06-27 03:28:00,
2013-06-26 22:29:00,69.2,63.1,29.74,South,176,0.0,0.0,81,0.00,,,0.00,Wunderground v.1.15,2013-06-27 03:29:00,
2013-06-26 22:34:00,69.0,62.9,29.75,South,176,0.0,0.0,81,0.00,,,0.00,Wunderground v.1.15,2013-06-27 03:34:00,
2013-06-26 22:39:00,68.9,62.8,29.75,South,176,0.0,0.0,81,0.00,,,0.00,Wunderground v.1.15,2013-06-27 03:39:00,
2013-06-26 22:44:00,68.9,62.8,29.75,South,176,0.0,0.0,81,0.00,,,0.00,Wunderground v.1.15,2013-06-27 03:44:00,
2013-06-26 22:49:00,68.6,62.5,29.75,South,176,0.0,0.0,81,0.00,,,0.00,Wunderground v.1.15,2013-06-27 03:49:00,
2013-06-26 22:54:00,68.3,62.6,29.75,South,176,0.0,0.0,82,0.00,,,0.00,Wunderground v.1.15,2013-06-27 03:54:00,
2013-06-26 22:59:00,68.2,62.1,29.75,South,176,0.0,0.0,81,0.00,,,0.00,Wunderground v.1.15,2013-06-27 03:59:00,
2013-06-26 23:01:00,68.1,62.0,29.75,South,176,0.0,0.0,81,0.00,,,0.00,Wunderground v.1.15,2013-06-27 04:01:00,
2013-06-26 23:02:00,68.1,62.0,29.75,South,176,0.0,0.0,81,0.00,,,0.00,Wunderground v.1.15,2013-06-27 04:02:00,
2013-06-26 23:07:00,67.9,61.9,29.75,South,176,0.0,0.0,81,0.00,,,0.00,Wunderground v.1.15,2013-06-27 04:07:00,
2013-06-26 23:12:00,67.8,62.1,29.75,South,176,0.0,0.0,82,0.00,,,0.00,Wunderground v.1.15,2013-06-27 04:12:00,
2013-06-26 23:17:00,67.6,61.9,29.75,South,176,0.0,0.0,82,0.00,,,0.00,Wunderground v.1.15,2013-06-27 04:17:00,
2013-06-26 23:22:00,67.4,61.7,29.75,South,176,0.0,0.0,82,0.00,,,0.00,Wunderground v.1.15,2013-06-27 04:22:00,
2013-06-26 23:27:00,67.1,61.8,29.75,South,176,0.0,0.0,83,0.00,,,0.00,Wunderground v.1.15,2013-06-27 04:27:00,
2013-06-26 23:32:00,66.8,61.5,29.75,South,176,0.0,0.0,83,0.00,,,0.00,Wunderground v.1.15,2013-06-27 04:32:00,
2013-06-26 23:37:00,66.4,61.1,29.75,South,176,0.0,0.0,83,0.00,,,0.00,Wunderground v.1.15,2013-06-27 04:37:00,
2013-06-26 23:42:00,65.7,60.4,29.76,South,176,0.0,0.0,83,0.00,,,0.00,Wunderground v.1.15,2013-06-27 04:42:00,
2013-06-26 23:47:00,65.3,60.7,29.76,South,176,0.0,0.0,85,0.00,,,0.00,Wunderground v.1.15,2013-06-27 04:47:00,
2013-06-26 23:52:00,65.2,60.9,29.75,South,176,0.0,0.0,86,0.00,,,0.00,Wunderground v.1.15,2013-06-27 04:52:00,
2013-06-26 23:57:00,65.4,61.1,29.76,South,176,0.0,0.0,86,0.00,,,0.00,Wunderground v.1.15,2013-06-27 04:57:00,